Terminal Aerodrome Forecast
Issued by NWS Memphis, TN

Home | Current Version | Previous Version | Text Only | Print | Product List | Glossary On
Versions: 1 2 3 4 5 6 7 8 9 10 11 12 13 14 15 16 17 18 19 20 21 22 23
000
FTUS44 KMEG 260712 AAA
TAFMKL
TAF AMD
KMKL 260712Z 2607/2706 VRB04KT 4SM -RA BR SCT035 OVC060
     FM260800 VRB04KT 4SM -RA BR SCT015 OVC035
     FM261000 09005KT 3SM RA BR BKN009 OVC015
     FM261600 36008KT P6SM -RA OVC015
     FM262200 35009KT P6SM OVC050=

USA.gov is the U.S. government's official web portal to all federal, state and local government web resources and services.